Time;durP1;ratioP1;P1;durP2;ratioP2;P2;SDS_P1;SDS_P2;PMS_P1;PMS_P2;Temp;Humidity;BMP_temperature;BMP_pressure;BME280_temperature;BME280_humidity;BME280_pressure;Samples;Min_cycle;Max_cycle;Signal;HPM_P1;HPM_P2
2023/02/26 00:04:18;;;;;;;3.92;1.20;;;;;;;;;;10434537;28;20415;-76
2023/02/26 00:09:22;;;;;;;2.47;1.75;;;;;;;;;;10435040;28;20485;-76
2023/02/26 00:14:28;;;;;;;4.53;1.85;;;;;;;;;;10433291;28;20457;-76
2023/02/26 00:19:30;;;;;;;2.90;1.50;;;;;;;;;;10431508;28;20122;-77
2023/02/26 00:24:34;;;;;;;2.97;1.40;;;;;;;;;;10427078;28;20387;-75
2023/02/26 00:29:38;;;;;;;2.00;1.60;;;;;;;;;;10433251;28;20126;-76
2023/02/26 00:34:41;;;;;;;3.77;1.67;;;;;;;;;;10430753;28;20048;-76
2023/02/26 00:39:50;;;;;;;4.00;2.10;;;;;;;;;;10436775;28;20037;-76
2023/02/26 00:44:56;;;;;;;5.60;1.90;;;;;;;;;;10437299;28;20157;-76
2023/02/26 00:50:04;;;;;;;3.20;1.80;;;;;;;;;;10429950;28;20479;-76
2023/02/26 00:55:07;;;;;;;2.60;1.47;;;;;;;;;;10432406;28;20084;-76
2023/02/26 01:00:12;;;;;;;1.40;1.23;;;;;;;;;;10444372;28;20084;-77
2023/02/26 01:05:25;;;;;;;3.03;1.70;;;;;;;;;;10440079;28;20060;-77
2023/02/26 01:10:30;;;;;;;1.95;1.08;;;;;;;;;;10415268;28;20037;-76
2023/02/26 01:15:38;;;;;;;2.23;1.37;;;;;;;;;;10432737;28;20095;-78
2023/02/26 01:20:45;;;;;;;2.07;1.20;;;;;;;;;;10437809;28;20440;-76
2023/02/26 01:25:49;;;;;;;4.50;1.40;;;;;;;;;;10449285;28;20123;-75
2023/02/26 01:30:55;;;;;;;3.67;1.57;;;;;;;;;;10436140;28;20180;-76
2023/02/26 01:36:01;;;;;;;1.43;1.10;;;;;;;;;;10437830;28;20506;-77
2023/02/26 01:41:10;;;;;;;2.13;1.40;;;;;;;;;;10439245;28;20053;-76
2023/02/26 01:46:18;;;;;;;2.03;1.40;;;;;;;;;;10427197;28;21010;-76
2023/02/26 01:51:35;;;;;;;2.53;1.40;;;;;;;;;;10414198;28;20347;-77
2023/02/26 01:56:39;;;;;;;2.27;1.27;;;;;;;;;;10436636;28;20502;-76
2023/02/26 02:01:43;;;;;;;1.77;1.00;;;;;;;;;;10436742;28;20068;-76
2023/02/26 02:06:48;;;;;;;3.10;1.67;;;;;;;;;;10438005;28;20483;-76
2023/02/26 02:12:00;;;;;;;2.93;1.60;;;;;;;;;;10432490;28;20067;-75
2023/02/26 02:17:08;;;;;;;3.10;1.37;;;;;;;;;;10437562;28;20466;-74
2023/02/26 02:22:20;;;;;;;1.97;1.30;;;;;;;;;;10432952;28;20067;-76
2023/02/26 02:27:29;;;;;;;2.57;1.50;;;;;;;;;;10428295;28;20162;-76
2023/02/26 02:32:36;;;;;;;1.60;0.87;;;;;;;;;;10443074;28;20046;-75
2023/02/26 02:37:41;;;;;;;3.07;1.40;;;;;;;;;;10432111;28;20036;-76
2023/02/26 02:42:47;;;;;;;1.97;1.00;;;;;;;;;;10436769;28;20067;-76
2023/02/26 02:47:53;;;;;;;2.60;1.33;;;;;;;;;;10440307;28;20060;-76
2023/02/26 02:52:57;;;;;;;2.43;1.53;;;;;;;;;;10434307;28;20503;-76
2023/02/26 02:58:02;;;;;;;3.13;1.65;;;;;;;;;;10433999;28;20200;-78
2023/02/26 03:03:09;;;;;;;3.40;1.83;;;;;;;;;;10433666;28;20102;-77
2023/02/26 03:08:15;;;;;;;1.87;1.37;;;;;;;;;;10429091;28;20033;-76
2023/02/26 03:13:19;;;;;;;1.67;0.80;;;;;;;;;;10438431;28;20028;-77
2023/02/26 03:18:37;;;;;;;4.03;1.30;;;;;;;;;;10435393;28;20036;-76
2023/02/26 03:23:43;;;;;;;2.33;1.03;;;;;;;;;;10431551;28;20071;-76
2023/02/26 03:28:49;;;;;;;4.50;1.20;;;;;;;;;;10432766;28;20068;-75
2023/02/26 03:33:57;;;;;;;2.03;1.30;;;;;;;;;;10439829;28;20041;-74
2023/02/26 03:39:05;;;;;;;0.90;0.80;;;;;;;;;;10415213;28;20481;-76
2023/02/26 03:44:10;;;;;;;3.13;1.20;;;;;;;;;;10427987;28;20216;-75
2023/02/26 03:49:16;;;;;;;2.53;1.43;;;;;;;;;;10433934;28;20048;-76
2023/02/26 03:54:20;;;;;;;1.40;1.10;;;;;;;;;;10434282;28;20104;-75
2023/02/26 03:59:23;;;;;;;;;;;;;;;;;;10451509;28;20045;-74
2023/02/26 04:04:30;;;;;;;3.87;1.47;;;;;;;;;;10435393;28;20023;-73
2023/02/26 04:09:33;;;;;;;3.73;1.77;;;;;;;;;;10438406;28;20124;-73
2023/02/26 04:14:36;;;;;;;1.57;0.93;;;;;;;;;;10433228;28;20518;-75
2023/02/26 04:19:40;;;;;;;2.83;1.07;;;;;;;;;;10449477;28;20135;-76
2023/02/26 04:24:42;;;;;;;2.15;1.42;;;;;;;;;;10452312;28;20052;-75
2023/02/26 04:29:45;;;;;;;1.90;1.20;;;;;;;;;;10453601;28;20048;-75
2023/02/26 04:34:49;;;;;;;3.77;1.20;;;;;;;;;;10438777;28;20442;-77
2023/02/26 04:39:52;;;;;;;4.43;1.57;;;;;;;;;;10439280;28;20047;-75
2023/02/26 04:44:55;;;;;;;2.17;1.50;;;;;;;;;;10441255;28;20052;-76
2023/02/26 04:49:59;;;;;;;3.17;1.53;;;;;;;;;;10433224;28;20470;-77
2023/02/26 04:55:02;;;;;;;9.13;1.80;;;;;;;;;;10441264;28;20037;-76
2023/02/26 05:00:07;;;;;;;10.20;2.43;;;;;;;;;;10444349;28;20048;-76
2023/02/26 05:05:12;;;;;;;6.40;1.87;;;;;;;;;;10439044;28;20129;-77
2023/02/26 05:10:14;;;;;;;5.93;1.60;;;;;;;;;;10437621;28;20545;-75
2023/02/26 05:15:17;;;;;;;3.60;1.67;;;;;;;;;;10436559;28;20068;-76
2023/02/26 05:20:21;;;;;;;4.57;1.20;;;;;;;;;;10440782;28;20052;-76
2023/02/26 05:25:24;;;;;;;1.33;0.90;;;;;;;;;;10435883;28;20079;-76
2023/02/26 05:30:28;;;;;;;4.15;1.40;;;;;;;;;;10438649;28;20045;-75
2023/02/26 05:35:33;;;;;;;2.97;1.43;;;;;;;;;;10435443;28;20063;-76
2023/02/26 05:40:37;;;;;;;3.07;1.10;;;;;;;;;;10440073;28;20045;-75
2023/02/26 05:45:40;;;;;;;3.80;1.90;;;;;;;;;;10452575;28;20555;-77
2023/02/26 05:50:44;;;;;;;4.40;1.60;;;;;;;;;;10439998;28;20047;-75
2023/02/26 05:55:47;;;;;;;;;;;;;;;;;;10434307;28;20072;-76
2023/02/26 06:00:50;;;;;;;8.23;1.10;;;;;;;;;;10442937;28;20095;-77
2023/02/26 06:05:54;;;;;;;1.48;1.10;;;;;;;;;;10438392;28;20086;-77
2023/02/26 06:10:57;;;;;;;2.13;0.85;;;;;;;;;;10429675;28;20059;-76
2023/02/26 06:16:00;;;;;;;2.60;1.60;;;;;;;;;;10418695;28;20041;-76
2023/02/26 06:21:04;;;;;;;1.57;1.00;;;;;;;;;;10434616;28;20037;-75
2023/02/26 06:26:07;;;;;;;2.13;1.37;;;;;;;;;;10440844;28;20459;-75
2023/02/26 06:31:10;;;;;;;1.57;1.20;;;;;;;;;;10436937;28;20052;-77
2023/02/26 06:36:14;;;;;;;2.83;1.33;;;;;;;;;;10435571;28;20130;-76
2023/02/26 06:41:17;;;;;;;;;;;;;;;;;;10436879;28;20063;-76
2023/02/26 06:46:20;;;;;;;2.93;1.20;;;;;;;;;;10411074;28;19944;-77
2023/02/26 06:51:24;;;;;;;8.00;4.77;;;;;;;;;;10430170;28;20442;-77
2023/02/26 06:56:27;;;;;;;2.30;1.30;;;;;;;;;;10429974;28;20406;-78
2023/02/26 07:01:31;;;;;;;2.90;1.43;;;;;;;;;;10429705;28;20123;-78
2023/02/26 07:06:36;;;;;;;5.28;1.60;;;;;;;;;;10436001;28;20044;-75
2023/02/26 07:11:39;;;;;;;3.70;1.43;;;;;;;;;;10412451;28;20049;-77
2023/02/26 07:16:42;;;;;;;4.87;1.57;;;;;;;;;;10428329;28;20046;-76
2023/02/26 07:21:49;;;;;;;5.90;1.40;;;;;;;;;;10430306;28;20395;-76
2023/02/26 07:26:52;;;;;;;4.68;1.63;;;;;;;;;;10436197;28;20478;-76
2023/02/26 07:31:55;;;;;;;1.37;0.93;;;;;;;;;;10447834;28;20593;-76
2023/02/26 07:37:00;;;;;;;4.40;1.50;;;;;;;;;;10429044;28;20303;-75
2023/02/26 07:42:02;;;;;;;;;;;;;;;;;;10433958;28;20052;-75
2023/02/26 07:47:05;;;;;;;3.93;1.80;;;;;;;;;;10431679;28;19929;-75
2023/02/26 07:52:10;;;;;;;1.33;1.10;;;;;;;;;;10428089;28;20310;-76
2023/02/26 07:57:13;;;;;;;3.27;1.47;;;;;;;;;;10441958;28;20037;-76
2023/02/26 08:02:16;;;;;;;3.33;1.57;;;;;;;;;;10430812;28;20042;-75
2023/02/26 08:07:21;;;;;;;2.47;1.13;;;;;;;;;;10429817;28;20033;-78
2023/02/26 08:12:24;;;;;;;3.78;1.60;;;;;;;;;;10431537;28;20052;-76
2023/02/26 08:17:27;;;;;;;1.30;0.93;;;;;;;;;;10437742;28;20037;-77
2023/02/26 08:22:32;;;;;;;4.32;1.70;;;;;;;;;;10444077;28;20079;-76
2023/02/26 08:27:35;;;;;;;4.60;1.70;;;;;;;;;;10438707;28;20122;-77
2023/02/26 08:32:41;;;;;;;3.87;1.53;;;;;;;;;;10445910;28;20054;-76
2023/02/26 08:37:45;;;;;;;4.07;1.60;;;;;;;;;;10434751;28;20041;-77
2023/02/26 08:42:48;;;;;;;4.28;1.60;;;;;;;;;;10442954;28;20821;-76
2023/02/26 08:47:52;;;;;;;4.13;1.70;;;;;;;;;;10431898;28;20240;-76
2023/02/26 08:53:00;;;;;;;4.70;1.43;;;;;;;;;;10440747;28;20049;-84
2023/02/26 08:58:03;;;;;;;4.53;1.67;;;;;;;;;;10461081;28;20105;-85
2023/02/26 09:03:06;;;;;;;3.25;1.98;;;;;;;;;;10470049;28;20056;-87
2023/02/26 09:08:14;;;;;;;4.63;1.97;;;;;;;;;;10459112;28;20075;-88
2023/02/26 09:13:18;;;;;;;4.73;1.97;;;;;;;;;;10494000;28;20056;-91
2023/02/26 09:18:21;;;;;;;2.83;1.70;;;;;;;;;;10495805;28;20172;-79
2023/02/26 09:23:25;;;;;;;4.30;1.90;;;;;;;;;;10487939;28;20064;-85
2023/02/26 09:28:28;;;;;;;2.93;1.77;;;;;;;;;;10458679;28;20099;-87
2023/02/26 09:33:32;;;;;;;2.67;1.43;;;;;;;;;;10442313;28;20096;-86
2023/02/26 09:38:36;;;;;;;;;;;;;;;;;;10455463;28;20106;-85
2023/02/26 09:43:53;;;;;;;4.30;1.60;;;;;;;;;;10451215;28;19932;-88
2023/02/26 09:49:00;;;;;;;2.77;1.40;;;;;;;;;;10447415;28;20036;-85
2023/02/26 09:54:07;;;;;;;3.90;2.50;;;;;;;;;;10446704;28;20059;-87
2023/02/26 09:59:11;;;;;;;3.80;2.40;;;;;;;;;;10422332;28;20061;-89
2023/02/26 10:04:23;;;;;;;3.45;2.20;;;;;;;;;;10446446;28;20056;-84
2023/02/26 10:09:31;;;;;;;5.10;2.20;;;;;;;;;;10443184;28;20044;-76
2023/02/26 10:14:37;;;;;;;4.30;2.70;;;;;;;;;;10432622;28;20319;-76
2023/02/26 10:19:42;;;;;;;5.28;2.50;;;;;;;;;;10432984;28;20041;-75
2023/02/26 10:24:48;;;;;;;6.70;4.05;;;;;;;;;;10435170;28;20400;-76
2023/02/26 10:29:58;;;;;;;2.70;2.15;;;;;;;;;;10431085;28;20052;-76
2023/02/26 10:35:03;;;;;;;7.07;2.92;;;;;;;;;;10433994;28;20428;-76
2023/02/26 10:40:11;;;;;;;4.13;2.03;;;;;;;;;;10436713;28;20106;-76
2023/02/26 10:45:32;;;;;;;2.80;1.67;;;;;;;;;;10432995;28;20041;-75
2023/02/26 10:50:39;;;;;;;4.78;2.50;;;;;;;;;;10433962;28;20557;-75
2023/02/26 10:55:45;;;;;;;4.43;1.67;;;;;;;;;;10416065;28;20051;-76
2023/02/26 11:00:48;;;;;;;1.65;1.23;;;;;;;;;;10432694;28;20033;-76
2023/02/26 11:05:59;;;;;;;3.35;1.90;;;;;;;;;;10449139;28;20037;-76
2023/02/26 11:11:03;;;;;;;2.13;1.63;;;;;;;;;;10434318;28;20041;-75
2023/02/26 11:16:11;;;;;;;4.00;1.88;;;;;;;;;;10434440;28;20068;-76
2023/02/26 11:21:18;;;;;;;1.73;1.40;;;;;;;;;;10434519;28;20044;-75
2023/02/26 11:26:25;;;;;;;2.80;1.77;;;;;;;;;;10422039;28;20029;-77
2023/02/26 11:31:29;;;;;;;2.25;1.45;;;;;;;;;;10433743;28;20168;-78
2023/02/26 11:36:38;;;;;;;3.53;2.08;;;;;;;;;;10437657;28;20032;-78
2023/02/26 11:41:41;;;;;;;5.68;2.20;;;;;;;;;;10431571;28;20056;-77
2023/02/26 11:46:45;;;;;;;2.73;1.80;;;;;;;;;;10427581;28;20048;-77
2023/02/26 11:52:03;;;;;;;2.55;1.98;;;;;;;;;;10434497;28;20048;-77
2023/02/26 11:57:07;;;;;;;3.28;1.83;;;;;;;;;;10440307;28;20061;-77
2023/02/26 12:02:12;;;;;;;4.40;2.40;;;;;;;;;;10440399;28;20040;-76
2023/02/26 12:07:17;;;;;;;4.85;2.55;;;;;;;;;;10434187;28;20051;-77
2023/02/26 12:12:40;;;;;;;2.25;1.63;;;;;;;;;;10434736;28;20045;-78
2023/02/26 12:18:00;;;;;;;5.32;2.40;;;;;;;;;;10435271;28;20473;-76
2023/02/26 12:23:21;;;;;;;3.85;2.50;;;;;;;;;;10439306;28;20565;-77
2023/02/26 12:28:48;;;;;;;2.47;1.30;;;;;;;;;;10438107;28;20045;-77
2023/02/26 12:33:55;;;;;;;2.22;2.00;;;;;;;;;;10434677;28;20072;-78
2023/02/26 12:39:04;;;;;;;1.90;1.65;;;;;;;;;;10442110;28;20044;-77
2023/02/26 12:44:13;;;;;;;2.17;1.90;;;;;;;;;;10440690;28;20083;-78
2023/02/26 12:49:43;;;;;;;2.60;2.40;;;;;;;;;;10441247;28;20037;-79
2023/02/26 12:54:53;;;;;;;2.55;1.95;;;;;;;;;;10394838;28;20406;-78
2023/02/26 13:00:13;;;;;;;2.65;1.60;;;;;;;;;;10427091;28;20433;-78
2023/02/26 13:05:31;;;;;;;2.45;1.60;;;;;;;;;;10435336;28;20048;-78
2023/02/26 13:10:40;;;;;;;2.00;1.10;;;;;;;;;;10445644;28;20037;-77
2023/02/26 13:15:50;;;;;;;2.25;1.30;;;;;;;;;;10440417;28;20049;-78
2023/02/26 13:20:59;;;;;;;2.03;1.33;;;;;;;;;;10439898;28;20033;-77
2023/02/26 13:26:05;;;;;;;2.17;1.17;;;;;;;;;;10427824;28;20040;-78
2023/02/26 13:31:11;;;;;;;3.92;1.65;;;;;;;;;;10443823;28;20522;-78
2023/02/26 13:36:16;;;;;;;1.50;1.35;;;;;;;;;;10440766;28;20055;-77
2023/02/26 13:41:22;;;;;;;2.47;1.00;;;;;;;;;;10444470;28;20033;-78
2023/02/26 13:46:31;;;;;;;2.78;1.10;;;;;;;;;;10435446;28;20064;-78
2023/02/26 13:51:37;;;;;;;4.13;1.77;;;;;;;;;;10450115;28;20132;-77
2023/02/26 13:56:49;;;;;;;4.43;2.15;;;;;;;;;;10453626;28;20091;-77
2023/02/26 14:01:54;;;;;;;2.85;1.70;;;;;;;;;;10446005;28;20057;-78
2023/02/26 14:07:01;;;;;;;2.85;1.17;;;;;;;;;;10453279;28;20033;-78
2023/02/26 14:12:04;;;;;;;1.63;0.32;;;;;;;;;;10451266;28;20129;-79
2023/02/26 14:17:36;;;;;;;2.65;1.60;;;;;;;;;;10444055;28;20037;-77
2023/02/26 14:22:42;;;;;;;2.17;0.82;;;;;;;;;;10414661;28;20399;-79
2023/02/26 14:27:46;;;;;;;2.25;1.38;;;;;;;;;;10437653;28;20045;-78
2023/02/26 14:32:53;;;;;;;4.63;1.52;;;;;;;;;;10443353;28;20456;-77
2023/02/26 14:37:59;;;;;;;2.70;1.60;;;;;;;;;;10437691;28;20469;-77
2023/02/26 14:43:13;;;;;;;2.45;0.98;;;;;;;;;;10416206;28;20056;-78
2023/02/26 14:48:28;;;;;;;1.33;0.85;;;;;;;;;;10433920;28;20180;-76
2023/02/26 14:54:10;;;;;;;2.35;1.40;;;;;;;;;;10440297;28;20494;-77
2023/02/26 14:59:36;;;;;;;3.33;1.85;;;;;;;;;;10437994;28;20565;-77
2023/02/26 15:04:55;;;;;;;1.27;1.08;;;;;;;;;;10437049;28;20135;-78
2023/02/26 15:10:19;;;;;;;1.70;0.75;;;;;;;;;;10413031;28;20044;-77
2023/02/26 15:15:35;;;;;;;1.05;0.43;;;;;;;;;;10418064;28;20041;-77
2023/02/26 15:20:52;;;;;;;1.40;1.02;;;;;;;;;;10422794;28;20490;-78
2023/02/26 15:25:56;;;;;;;2.42;0.90;;;;;;;;;;10435854;28;20563;-78
2023/02/26 15:31:01;;;;;;;1.25;0.90;;;;;;;;;;10434388;28;20039;-78
2023/02/26 15:36:09;;;;;;;2.42;1.38;;;;;;;;;;10437804;28;20033;-77
2023/02/26 15:41:27;;;;;;;8.37;3.23;;;;;;;;;;10428071;28;20132;-77
2023/02/26 15:46:43;;;;;;;2.33;1.57;;;;;;;;;;10424588;28;20514;-78
2023/02/26 15:51:50;;;;;;;1.40;1.20;;;;;;;;;;10416030;28;20045;-77
2023/02/26 15:56:59;;;;;;;5.43;2.28;;;;;;;;;;10431481;28;20045;-78
2023/02/26 16:02:11;;;;;;;2.30;0.87;;;;;;;;;;10437757;28;20044;-77
2023/02/26 16:07:31;;;;;;;5.18;2.55;;;;;;;;;;10428763;28;20479;-77
2023/02/26 16:12:39;;;;;;;1.35;0.93;;;;;;;;;;10429907;28;20053;-77
2023/02/26 16:18:42;;;;;;;3.05;1.67;;;;;;;;;;10422974;28;20056;-78
2023/02/26 16:24:01;;;;;;;3.58;1.75;;;;;;;;;;10423484;28;20040;-78
2023/02/26 16:29:07;;;;;;;4.35;1.63;;;;;;;;;;10421815;28;20116;-78
2023/02/26 16:34:45;;;;;;;1.55;0.98;;;;;;;;;;10441550;28;20045;-78
2023/02/26 16:39:56;;;;;;;2.83;1.50;;;;;;;;;;10462804;28;20454;-77
2023/02/26 16:45:10;;;;;;;3.23;0.80;;;;;;;;;;10438060;28;20053;-78
2023/02/26 16:50:18;;;;;;;3.47;1.43;;;;;;;;;;10442775;28;20044;-79
2023/02/26 16:55:33;;;;;;;2.20;1.03;;;;;;;;;;10441951;28;20053;-78
2023/02/26 17:00:39;;;;;;;8.17;1.80;;;;;;;;;;10435273;28;20490;-77
2023/02/26 17:05:45;;;;;;;5.30;1.90;;;;;;;;;;10411106;28;20450;-78
2023/02/26 17:10:55;;;;;;;8.37;1.80;;;;;;;;;;10436761;28;20120;-78
2023/02/26 17:16:02;;;;;;;6.37;1.60;;;;;;;;;;10456433;28;20537;-77
2023/02/26 17:21:22;;;;;;;3.17;1.40;;;;;;;;;;10455037;28;20207;-78
2023/02/26 17:26:32;;;;;;;2.60;1.53;;;;;;;;;;10443470;28;20498;-78
2023/02/26 17:31:42;;;;;;;2.00;1.23;;;;;;;;;;10425229;28;20057;-78
2023/02/26 17:36:46;;;;;;;1.33;0.90;;;;;;;;;;10434501;28;20060;-80
2023/02/26 17:42:00;;;;;;;2.30;1.60;;;;;;;;;;10443081;28;20040;-82
2023/02/26 17:47:17;;;;;;;1.27;0.60;;;;;;;;;;10440984;28;20056;-79
2023/02/26 17:52:23;;;;;;;5.30;1.70;;;;;;;;;;10438859;28;20582;-78
2023/02/26 17:57:32;;;;;;;5.73;2.20;;;;;;;;;;10445876;28;20051;-78
2023/02/26 18:02:42;;;;;;;;;;;;;;;;;;10453956;28;20033;-76
2023/02/26 18:07:58;;;;;;;2.80;1.80;;;;;;;;;;10439052;28;20287;-76
2023/02/26 18:13:13;;;;;;;2.23;1.30;;;;;;;;;;10419980;28;20041;-77
2023/02/26 18:18:18;;;;;;;1.23;1.00;;;;;;;;;;10417130;28;20049;-76
2023/02/26 18:23:23;;;;;;;3.77;0.97;;;;;;;;;;10437630;28;20060;-77
2023/02/26 18:28:41;;;;;;;3.97;1.73;;;;;;;;;;10421440;28;20047;-78
2023/02/26 18:33:53;;;;;;;6.13;2.30;;;;;;;;;;10441127;28;20406;-77
2023/02/26 18:39:00;;;;;;;2.20;1.40;;;;;;;;;;10428314;28;20040;-78
2023/02/26 18:44:22;;;;;;;3.20;1.37;;;;;;;;;;10446839;28;20106;-76
2023/02/26 18:49:29;;;;;;;2.60;1.17;;;;;;;;;;10439128;28;20029;-77
2023/02/26 18:54:43;;;;;;;4.43;2.00;;;;;;;;;;10450323;28;20135;-77
2023/02/26 18:59:59;;;;;;;5.53;2.87;;;;;;;;;;10442001;28;20036;-76
2023/02/26 19:05:11;;;;;;;5.13;2.53;;;;;;;;;;10453203;28;20083;-76
2023/02/26 19:10:48;;;;;;;2.70;1.77;;;;;;;;;;10439528;28;20047;-78
2023/02/26 19:15:58;;;;;;;8.03;3.20;;;;;;;;;;10454584;28;20037;-80
2023/02/26 19:21:05;;;;;;;5.67;2.40;;;;;;;;;;10432575;28;20039;-77
2023/02/26 19:26:11;;;;;;;4.07;2.07;;;;;;;;;;10438477;28;20410;-78
2023/02/26 19:31:26;;;;;;;7.67;3.10;;;;;;;;;;10459353;28;20655;-77
2023/02/26 19:36:33;;;;;;;5.63;2.65;;;;;;;;;;10444681;28;20136;-78
2023/02/26 19:41:40;;;;;;;4.03;1.87;;;;;;;;;;10438222;28;20498;-76
2023/02/26 19:52:13;;;;;;;7.03;3.08;;;;;;;;;;10443119;28;20130;-78
2023/02/26 19:57:30;;;;;;;6.43;3.10;;;;;;;;;;10421226;28;20041;-78
2023/02/26 20:02:44;;;;;;;5.20;2.47;;;;;;;;;;10445928;28;20067;-79
2023/02/26 20:07:55;;;;;;;5.23;2.47;;;;;;;;;;10445205;28;20036;-78
2023/02/26 20:13:05;;;;;;;3.87;2.00;;;;;;;;;;10447366;28;20459;-77
2023/02/26 20:18:26;;;;;;;2.87;1.70;;;;;;;;;;10446532;28;20273;-78
2023/02/26 20:23:36;;;;;;;2.13;1.10;;;;;;;;;;10422574;28;20521;-78
2023/02/26 20:28:48;;;;;;;6.03;1.73;;;;;;;;;;10454555;28;20140;-78
2023/02/26 20:33:55;;;;;;;3.33;1.47;;;;;;;;;;10423839;28;20558;-77
2023/02/26 20:39:06;;;;;;;5.67;2.87;;;;;;;;;;10431418;28;20370;-77
2023/02/26 20:44:14;;;;;;;5.20;1.37;;;;;;;;;;10439560;28;20430;-77
2023/02/26 20:49:42;;;;;;;6.00;2.27;;;;;;;;;;10431046;28;20073;-78
2023/02/26 20:54:48;;;;;;;1.67;1.40;;;;;;;;;;10438343;28;20045;-77
2023/02/26 20:59:54;;;;;;;3.70;2.13;;;;;;;;;;10449478;28;20091;-76
2023/02/26 21:05:03;;;;;;;5.50;2.10;;;;;;;;;;10437348;28;20095;-76
2023/02/26 21:10:08;;;;;;;9.07;3.47;;;;;;;;;;10450368;28;20460;-76
2023/02/26 21:15:15;;;;;;;3.70;2.00;;;;;;;;;;10439379;28;20072;-78
2023/02/26 21:20:22;;;;;;;5.77;3.00;;;;;;;;;;10430681;28;20427;-76
2023/02/26 21:25:33;;;;;;;1.70;1.07;;;;;;;;;;10449992;28;20425;-78
2023/02/26 21:30:43;;;;;;;3.43;1.80;;;;;;;;;;10437994;28;20033;-78
2023/02/26 21:35:56;;;;;;;5.07;2.53;;;;;;;;;;10438809;28;20518;-77
2023/02/26 21:41:02;;;;;;;4.97;2.77;;;;;;;;;;10416868;28;20053;-79
2023/02/26 21:46:18;;;;;;;4.30;2.23;;;;;;;;;;10437314;28;20055;-79
2023/02/26 21:51:26;;;;;;;8.67;3.30;;;;;;;;;;10418193;28;20033;-79
2023/02/26 21:56:33;;;;;;;7.47;2.20;;;;;;;;;;10454651;28;20047;-76
2023/02/26 22:01:36;;;;;;;6.63;2.03;;;;;;;;;;10422846;28;20052;-75
2023/02/26 22:06:53;;;;;;;6.97;2.50;;;;;;;;;;10432805;28;20552;-74
2023/02/26 22:11:58;;;;;;;2.47;1.50;;;;;;;;;;10425383;28;20040;-76
2023/02/26 22:22:30;;;;;;;2.07;1.03;;;;;;;;;;10432384;28;20132;-76
2023/02/26 22:27:37;;;;;;;4.65;2.28;;;;;;;;;;10436059;28;20584;-77
2023/02/26 22:32:43;;;;;;;7.83;3.27;;;;;;;;;;10434372;28;20045;-77
2023/02/26 22:37:54;;;;;;;5.37;1.93;;;;;;;;;;10441532;28;20123;-78
2023/02/26 22:42:59;;;;;;;2.03;1.17;;;;;;;;;;10440036;28;20482;-75
2023/02/26 22:48:11;;;;;;;4.43;1.63;;;;;;;;;;10413308;28;20049;-78
2023/02/26 22:53:17;;;;;;;5.37;2.27;;;;;;;;;;10421371;28;20037;-79
2023/02/26 22:58:26;;;;;;;5.13;2.23;;;;;;;;;;10439973;28;20049;-79
2023/02/26 23:03:36;;;;;;;6.43;2.87;;;;;;;;;;10408080;28;20053;-80
2023/02/26 23:08:51;;;;;;;3.03;1.53;;;;;;;;;;10420142;28;20414;-75
2023/02/26 23:13:59;;;;;;;4.80;2.40;;;;;;;;;;10441897;28;20029;-76
2023/02/26 23:19:04;;;;;;;3.90;1.87;;;;;;;;;;10415809;28;20063;-77
2023/02/26 23:24:14;;;;;;;5.07;1.80;;;;;;;;;;10435239;28;20506;-77
2023/02/26 23:29:21;;;;;;;2.67;1.40;;;;;;;;;;10433346;28;20049;-76
2023/02/26 23:34:40;;;;;;;0.93;0.80;;;;;;;;;;10412464;28;20043;-74
2023/02/26 23:39:48;;;;;;;1.03;0.80;;;;;;;;;;10438994;28;20053;-76
2023/02/26 23:44:56;;;;;;;3.97;1.57;;;;;;;;;;10454745;28;20526;-76
2023/02/26 23:50:00;;;;;;;3.63;2.00;;;;;;;;;;10426201;28;20033;-77
2023/02/26 23:55:10;;;;;;;2.05;1.10;;;;;;;;;;10441776;28;20465;-76
